LEVCLPFL

Guest
Details From LEVC - Valencia
To LPFL - Flores
Flight Number -
Tags Generated
Created
Modified
Stats Distance 1,417 nm / 2,624 km
Max Altitude 0 ft / 0 m
Waypoints 4
Social Downloads 3
Likes 0
Share VATSIM

Download

Looking for another format? Having issues loading an existing format? Contact us
Advertisement - Login to hide

Notes

Generated

Route

LEVC ZORBA FLO LPFL

ID Type Via Altitude Latitude Longitude Leg Dist Tot Dist Heading (true) Name
O LEVC APT - 0 ft / 0 m 39.49655˚ -0.50070˚ - 0 nm - -
ZORBA FIX - 0 ft / 0 m 40.18807˚ -5.39386˚ 229 nm 229 nm 282° / 279° -
FLO NDB - 0 ft / 0 m 39.44609˚ -31.16769˚ 1185 nm 1414 nm 276° / 260° FLORES NDB
O LPFL APT - 0 ft / 0 m 39.46152˚ -31.13312˚ 1 nm 1416 nm 60° / 60° FLORES

Altitude Profile

Advertisement - Login to hide

Weather


0- 5 10 15 20 25 30 35+ Temperature / ° C

Clouds and Precipitation
Forecast for 2017-12-11 12:00 UTC. Updated 2 hours ago

Ground ~20,000 ft ~40,000 ft Winds

LEVC

Details ICAO LEVC (VLC)
Name Valencia
Region Spain
Timezone Europe/Madrid (UTC+1.0)
Stats Elevation 225 ft / 69 m (AMSL)
Location 39.488236° -0.483892°
Runways 2
Magnetic Variation 0.191° E

METAR

LEVC 111100Z 25019KT 210V270 9999 FEW025 13/04 Q0995 NOSIG

Decode

TAF

TAF LEVC 110500Z 1106/1206 25014KT 9999 FEW035 SCT050 TX17/1106Z TN06/1124Z PROB30 TEMPO 1106/1111 4000 RA TEMPO 1109/1116 27015G30KT BECMG 1116/1119 27006KT

Decode

Departure Runways

ID Width Length Bearing (true) Bearing (mag) Surface Threshold Offset Overrun Length
12 148 ft / 45 m 10,555 ft / 3,217 m 116.25° 116.06° Asphalt 0 ft / 0 m 646 ft / 197 m
22 154 ft / 47 m 3,828 ft / 1,167 m 217.99° 217.80° Asphalt 0 ft / 0 m 0 ft / 0 m
30 148 ft / 45 m 10,555 ft / 3,217 m 296.27° 296.08° Asphalt 1,001 ft / 305 m 932 ft / 284 m
4 154 ft / 47 m 3,828 ft / 1,167 m 37.98° 37.79° Asphalt 0 ft / 0 m 0 ft / 0 m

LPFL

Details ICAO LPFL (FLW)
Name FLORES
Region Portugal
Timezone Atlantic/Azores (UTC-1.0)
Stats Elevation 112 ft / 34 m (AMSL)
Location 39.455336° -31.131395°
Runways 1
Magnetic Variation 10.446° W

METAR

LPFL 111100Z 35009KT 9999 FEW010 BKN030 18/15 Q1030

Decode

TAF

Not found

Destination Runways

ID Width Length Bearing (true) Bearing (mag) Surface Threshold Offset Overrun Length
18 98 ft / 30 m 4,618 ft / 1,408 m 167.86° 178.31° Asphalt 262 ft / 80 m 0 ft / 0 m
36 98 ft / 30 m 4,618 ft / 1,408 m 347.86° 358.31° Asphalt 197 ft / 60 m 0 ft / 0 m